Annawan, Illinois
Current Conditions -  °F | °C
As of 9:55 AM on Tuesday 21 Oct 2014 (Local Time) from KSQI Reporting Station
Clear Clear  
Wind Chill: 52°   Ceiling: Unl
Heat Index: 52°   Visibility: 10mi
Dew Point: 41°   Wind: 12mph
Humidity: 67%   Direction: 50°NE
Pressure: 30.19"   Gusts: NA
Location:  41.4°N, 89.9°W
Report Text: KSQI 211455Z AUTO 05010KT 10SM CLR 11/05 A3019 RMK AO1 52020
Loading
Personal Weather Stations






























Interactive Weather Map
Tropical Storm Tracking
New forecast layout! Learn more

10-Day Weather Forecast

Advertisements
Track Severe Weather on mobile